• Join FlightAware (Why Join?)
  • Login
  • US Flag 
04:20PM EDT


 

Airport Tracker/Info


-or-


 

Live Flight TrackerFlight Track Log ✈ N2058A ✈ 30-Apr-2013 ✈ KTDW - KLBB

Flight Track Log - Related Links

Times and Time Zones

All times are in EDT time to prevent confusion due to time zone crossing. See the N2058A flight status page for this flight to view local times or setup timezone preferences in your user account.

Time Position Orientation Groundspeed Altitude Reporting Facility
EDT Latitude Longitude Course Direction KTS MPH feet Rate Location/Type
09:58AM 35.0889 -101.8214 180° South 147 169 5,900  Level Albuquerque Center
09:59AM 35.0481 -101.8217 180° South 146 168 7,100 840 Climbing Albuquerque Center
10:00AM 35.0072 -101.8231 182° South 146 168 7,700 240 Climbing Albuquerque Center
10:01AM 34.9475 -101.8228 180° South 173 199 7,600 -60 Descending Albuquerque Center
10:02AM 34.8944 -101.8214 179° South 187 215 7,600 -60 Level Albuquerque Center
10:03AM 34.8433 -101.8208 179° South 185 213 7,500 -60 Descending Albuquerque Center
10:04AM 34.9838 -101.8252 180° South  Level Estimated
10:05AM 34.7911 -101.8189 178° South 186 214 7,500  Level Albuquerque Center
10:06AM 34.7417 -101.8153 177° South 182 209 7,700  Climbing Albuquerque Center
10:07AM 34.6908 -101.8133 178° South 182 209 7,600 -60 Descending Albuquerque Center
10:08AM 34.6394 -101.8169 183° South 183 211 7,600  Level Albuquerque Center
10:09AM 34.5886 -101.8192 182° South 184 212 7,600 -60 Level Albuquerque Center
10:10AM 34.5275 -101.8225 183° South 183 211 7,500 -60 Descending Albuquerque Center
10:11AM 34.4753 -101.8233 181° South 185 213 7,500  Level Albuquerque Center
10:12AM 34.4225 -101.8281 184° South 187 215 7,600  Climbing Albuquerque Center
10:13AM 34.3683 -101.8364 187° South 184 212 7,600  Level Fort Worth Center
10:14AM 34.3100 -101.8383 182° South 192 221 7,700  Climbing Fort Worth Center
10:15AM 34.2642 -101.8361 178° South 192 221 7,700 -60 Level Fort Worth Center
10:16AM 34.2142 -101.8336 178° South 189 217 7,600 -60 Descending Fort Worth Center
10:17AM 34.1619 -101.8308 177° South 188 216 7,600  Level Fort Worth Center
10:18AM 34.1100 -101.8308 180° South 186 214 7,600 -120 Level Fort Worth Center
10:19AM 34.0575 -101.8356 184° South 188 216 7,400 -360 Descending Fort Worth Center
10:20AM 33.9992 -101.8325 178° South 195 224 6,900 -540 Descending Fort Worth Center
10:21AM 33.9450 -101.8300 178° South 195 224 6,400 -300 Descending Fort Worth Center
10:22AM 33.8972 -101.8275 178° South 169 194 6,400 -300 Level Fort Worth Center
10:23AM 33.8492 -101.8275 180° South 173 199 5,900 -600 Descending Fort Worth Center
10:24AM 33.8011 -101.8300 182° South 176 203 5,300 -720 Descending Fort Worth Center
10:25AM 33.7572 -101.8328 183° South 147 169 4,500 -600 Descending Fort Worth Center
10:26AM 33.7239 -101.8336 181° South 107 123 4,100 -420 Descending Fort Worth Center
10:27AM 33.6947 -101.8322 178° South 94 108 3,700 -420 Descending Fort Worth Center
10:29AM 33.6637 -101.8206 180° South  Level Estimated
10:36AM 33.6637 -101.8206 180° South  Level Estimated